createdAt,value
2022-10-12T00:01:12.894Z,21.43
2022-10-12T00:04:22.426Z,20.07
2022-10-12T00:07:30.733Z,25.30
2022-10-12T00:10:42.603Z,23.47
2022-10-12T00:13:51.638Z,21.50
2022-10-12T00:16:59.844Z,27.47
2022-10-12T00:20:10.858Z,29.50
2022-10-12T00:23:19.034Z,28.10
2022-10-12T00:26:30.055Z,24.87
2022-10-12T00:29:39.125Z,30.87
2022-10-12T00:32:47.384Z,27.13
2022-10-12T00:35:57.030Z,31.90
2022-10-12T00:39:09.826Z,31.77
2022-10-12T00:42:21.571Z,29.63
2022-10-12T00:45:30.510Z,27.13
2022-10-12T00:48:40.158Z,28.70
2022-10-12T00:51:54.709Z,28.60
2022-10-12T00:55:04.027Z,25.33
2022-10-12T00:58:12.742Z,27.60
2022-10-12T01:01:21.365Z,30.60
2022-10-12T01:04:32.664Z,23.77
2022-10-12T01:07:42.446Z,27.17
2022-10-12T01:10:50.625Z,27.27
2022-10-12T01:13:59.861Z,31.90
2022-10-12T01:17:23.193Z,32.57
2022-10-12T01:20:48.910Z,27.33
2022-10-12T01:24:35.811Z,29.33
2022-10-12T01:27:51.468Z,32.50
2022-10-12T01:31:07.817Z,31.07
2022-10-12T01:34:28.856Z,32.13
2022-10-12T01:37:49.817Z,27.33
2022-10-12T01:41:08.862Z,29.23
2022-10-12T01:44:22.378Z,34.90
2022-10-12T01:47:33.546Z,32.13
2022-10-12T01:50:51.201Z,29.97
2022-10-12T01:54:11.651Z,38.93
2022-10-12T01:57:29.825Z,35.37
2022-10-12T02:00:49.036Z,34.57
2022-10-12T02:04:08.703Z,32.07
2022-10-12T02:07:27.053Z,34.60
2022-10-12T02:10:41.903Z,41.40
2022-10-12T02:13:57.435Z,35.07
2022-10-12T02:17:11.394Z,30.93
2022-10-12T02:20:26.436Z,40.87
2022-10-12T02:23:37.331Z,35.73
2022-10-12T02:26:51.831Z,36.47
2022-10-12T02:30:00.264Z,36.93
2022-10-12T02:33:15.741Z,38.93
2022-10-12T02:36:35.374Z,44.97
2022-10-12T02:39:51.567Z,41.33
2022-10-12T02:43:11.536Z,41.50
2022-10-12T02:46:24.025Z,36.43
2022-10-12T02:49:36.913Z,40.00
2022-10-12T02:52:49.762Z,36.93
2022-10-12T02:56:04.036Z,39.50
2022-10-12T03:03:58.247Z,38.23
2022-10-12T03:07:06.550Z,51.83
2022-10-12T03:10:16.448Z,45.77
2022-10-12T03:13:24.728Z,38.57
2022-10-12T03:16:32.901Z,38.53
2022-10-12T03:19:41.085Z,42.33
2022-10-12T03:22:49.942Z,37.70
2022-10-12T03:25:59.567Z,44.40
2022-10-12T03:29:09.232Z,38.00
2022-10-12T03:32:17.565Z,38.40
2022-10-12T03:35:25.759Z,39.00
2022-10-12T03:38:34.138Z,43.03
2022-10-12T03:41:43.946Z,37.20
2022-10-12T03:44:52.232Z,36.23
2022-10-12T03:48:04.738Z,39.93
2022-10-12T03:51:13.661Z,36.77
2022-10-12T03:54:21.959Z,36.97
2022-10-12T03:57:31.825Z,36.10
2022-10-12T04:00:40.652Z,38.00
2022-10-12T04:03:49.003Z,36.90
2022-10-12T04:06:57.225Z,44.07
2022-10-12T04:10:07.645Z,37.97
2022-10-12T04:16:59.237Z,35.13
2022-10-12T04:20:08.951Z,36.30
2022-10-12T04:23:17.807Z,45.87
2022-10-12T04:26:26.010Z,29.40
2022-10-12T04:29:34.600Z,37.60
2022-10-12T04:32:44.224Z,34.57
2022-10-12T04:35:52.364Z,34.50
2022-10-12T04:39:01.312Z,34.43
2022-10-12T04:42:10.022Z,34.87
2022-10-12T04:45:18.301Z,33.27
2022-10-12T04:48:29.015Z,37.40
2022-10-12T04:51:37.445Z,34.40
2022-10-12T04:54:45.912Z,39.17
2022-10-12T04:57:54.340Z,32.20
2022-10-12T05:01:02.981Z,34.07
2022-10-12T05:04:12.821Z,33.03
2022-10-12T05:07:21.133Z,38.37
2022-10-12T05:10:29.993Z,33.70
2022-10-12T05:13:38.490Z,33.17
2022-10-12T05:16:47.041Z,32.33
2022-10-12T05:19:59.236Z,34.90
2022-10-12T05:23:07.991Z,28.90
2022-10-12T05:26:16.589Z,32.80
2022-10-12T05:29:24.919Z,31.07
2022-10-12T05:32:33.824Z,31.27
2022-10-12T05:35:48.134Z,33.10
2022-10-12T05:38:58.017Z,30.87
2022-10-12T05:42:06.971Z,36.17
2022-10-12T05:45:15.329Z,29.97
2022-10-12T05:48:23.895Z,37.10
2022-10-12T05:51:33.682Z,33.47
2022-10-12T05:54:42.208Z,37.50
2022-10-12T05:57:51.922Z,33.13
2022-10-12T06:01:07.943Z,34.73
2022-10-12T06:04:16.179Z,34.37
2022-10-12T06:07:26.062Z,29.03
2022-10-12T06:10:34.543Z,30.10
2022-10-12T06:13:42.878Z,32.10
2022-10-12T06:16:54.452Z,28.37
2022-10-12T06:20:03.026Z,32.57
2022-10-12T06:23:12.745Z,35.10
2022-10-12T06:26:21.275Z,35.97
2022-10-12T06:29:29.682Z,32.73
2022-10-12T06:32:38.281Z,32.60
2022-10-12T06:35:47.415Z,35.07
2022-10-12T06:38:57.126Z,28.90
2022-10-12T06:42:05.593Z,31.47
2022-10-12T06:45:14.392Z,34.80
2022-10-12T06:48:22.881Z,31.47
2022-10-12T06:51:31.145Z,36.43
2022-10-12T06:54:41.411Z,33.93
2022-10-12T06:57:49.732Z,34.60
2022-10-12T07:00:58.206Z,30.10
2022-10-12T07:04:07.029Z,30.43
2022-10-12T07:07:15.316Z,32.90
2022-10-12T07:10:25.434Z,29.70
2022-10-12T07:13:34.699Z,34.43
2022-10-12T07:16:42.853Z,28.70
2022-10-12T07:19:51.059Z,30.10
2022-10-12T07:22:59.204Z,25.93
2022-10-12T07:26:09.627Z,30.83
2022-10-12T07:29:17.923Z,25.80
2022-10-12T07:32:26.286Z,26.40
2022-10-12T07:35:34.565Z,25.60
2022-10-12T07:38:45.063Z,21.50
2022-10-12T07:41:55.798Z,20.30
2022-10-12T07:45:06.136Z,23.30
2022-10-12T07:48:14.351Z,28.10
2022-10-12T07:51:22.837Z,22.40
2022-10-12T07:54:32.947Z,20.60
2022-10-12T07:57:44.353Z,23.20
2022-10-12T08:00:53.407Z,25.07
2022-10-12T08:04:02.634Z,27.40
2022-10-12T08:07:10.980Z,24.80
2022-10-12T08:10:20.024Z,26.47
2022-10-12T08:13:29.787Z,22.13
2022-10-12T08:16:38.558Z,23.27
2022-10-12T08:19:46.979Z,25.67
2022-10-12T08:22:55.871Z,22.53
2022-10-12T08:26:06.124Z,23.53
2022-10-12T08:29:16.657Z,25.23
2022-10-12T08:32:25.743Z,26.43
2022-10-12T08:35:34.155Z,22.97
2022-10-12T08:38:43.585Z,24.67
2022-10-12T08:42:09.543Z,22.40
2022-10-12T08:45:45.026Z,21.67
2022-10-12T08:49:01.775Z,19.97
2022-10-12T08:52:28.153Z,20.00
2022-10-12T08:55:42.277Z,20.87
2022-10-12T08:58:53.366Z,22.23
2022-10-12T09:02:34.569Z,17.63
2022-10-12T09:05:51.625Z,14.20
2022-10-12T09:09:11.575Z,18.53
2022-10-12T09:12:40.678Z,17.17
2022-10-12T09:15:54.901Z,19.53
2022-10-12T09:19:14.960Z,16.13
2022-10-12T09:22:23.188Z,17.00
2022-10-12T09:25:31.849Z,15.60
2022-10-12T09:28:45.281Z,19.17
2022-10-12T09:32:32.500Z,16.50
2022-10-12T09:35:45.373Z,16.10
2022-10-12T09:38:54.784Z,14.97
2022-10-12T09:42:03.552Z,13.90
2022-10-12T09:45:19.184Z,16.47
2022-10-12T09:48:27.808Z,16.33
2022-10-12T09:51:38.308Z,15.20
2022-10-12T09:54:50.457Z,11.27
2022-10-12T09:58:03.009Z,15.27
2022-10-12T10:01:25.528Z,13.67
2022-10-12T10:04:34.283Z,15.63
2022-10-12T10:07:44.121Z,15.03
2022-10-12T10:10:54.490Z,10.90
2022-10-12T10:14:03.725Z,14.83
2022-10-12T10:17:17.299Z,15.57
2022-10-12T10:20:33.072Z,15.93
2022-10-12T10:23:51.216Z,14.30
2022-10-12T10:27:02.438Z,11.73
2022-10-12T10:30:30.803Z,12.33
2022-10-12T10:33:41.338Z,13.63
2022-10-12T10:36:53.726Z,12.70
2022-10-12T10:40:04.919Z,11.23
2022-10-12T10:43:26.091Z,12.30
2022-10-12T10:46:37.407Z,12.33
2022-10-12T10:49:51.177Z,12.80
2022-10-12T10:53:04.002Z,12.93
2022-10-12T10:56:21.853Z,12.53
2022-10-12T10:59:52.192Z,11.10
2022-10-12T11:03:07.647Z,10.33
2022-10-12T11:06:31.979Z,10.07
2022-10-12T11:09:45.432Z,9.30
2022-10-12T11:13:04.576Z,10.73
2022-10-12T11:16:30.356Z,12.70
2022-10-12T11:19:47.978Z,10.53
2022-10-12T11:23:03.546Z,11.87
2022-10-12T11:26:24.377Z,8.73
2022-10-12T11:29:37.697Z,11.20
2022-10-12T11:32:50.960Z,13.57
2022-10-12T11:36:01.080Z,10.90
2022-10-12T11:39:22.684Z,9.33
2022-10-12T11:42:43.366Z,11.80
2022-10-12T11:45:59.422Z,7.17
2022-10-12T11:49:17.181Z,10.67
2022-10-12T11:52:29.234Z,10.20
2022-10-12T11:56:00.822Z,10.03
2022-10-12T11:59:20.850Z,9.67
2022-10-12T12:02:39.614Z,7.93
2022-10-12T12:05:48.429Z,7.70
2022-10-12T12:09:08.351Z,13.30
2022-10-12T12:12:22.773Z,10.60
2022-10-12T12:15:31.306Z,12.30
2022-10-12T12:19:17.101Z,9.97
2022-10-12T12:22:47.660Z,11.70
2022-10-12T12:26:17.264Z,15.20
2022-10-12T12:29:30.003Z,12.03
2022-10-12T12:32:48.803Z,9.67
2022-10-12T12:36:03.789Z,12.80
2022-10-12T12:39:26.120Z,11.73
2022-10-12T12:42:36.141Z,10.53
2022-10-12T12:45:57.845Z,8.33
2022-10-12T12:49:27.127Z,10.50
2022-10-12T12:52:40.919Z,14.40
2022-10-12T12:56:06.437Z,13.30
2022-10-12T13:00:11.659Z,13.70
2022-10-12T13:04:16.926Z,12.20
2022-10-12T13:07:54.518Z,12.30
2022-10-12T13:11:37.720Z,13.60
2022-10-12T13:15:08.085Z,12.03
2022-10-12T13:18:58.862Z,11.93
2022-10-12T13:22:18.337Z,13.43
2022-10-12T13:25:36.965Z,15.23
2022-10-12T13:28:50.471Z,14.10
2022-10-12T13:32:07.512Z,10.50
2022-10-12T13:35:31.905Z,13.80
2022-10-12T13:38:40.362Z,15.43
2022-10-12T13:41:54.639Z,14.13
2022-10-12T13:45:09.304Z,13.13
2022-10-12T13:48:39.796Z,15.30
2022-10-12T13:51:52.199Z,17.07
2022-10-12T13:55:01.905Z,14.37
2022-10-12T13:58:25.541Z,18.53
2022-10-12T14:01:35.533Z,16.13
2022-10-12T14:04:45.005Z,17.30
2022-10-12T14:07:57.537Z,17.30
2022-10-12T14:11:07.713Z,15.47
2022-10-12T14:14:29.671Z,24.97
2022-10-12T14:17:44.842Z,21.20
2022-10-12T14:21:06.858Z,18.40
2022-10-12T14:24:20.591Z,16.33
2022-10-12T14:27:30.577Z,19.80
2022-10-12T14:30:54.431Z,17.47
2022-10-12T14:34:25.203Z,17.00
2022-10-12T14:37:33.944Z,20.67
2022-10-12T14:40:42.451Z,17.93
2022-10-12T14:44:10.457Z,21.50
2022-10-12T14:47:25.145Z,20.57
2022-10-12T14:50:34.350Z,18.10
2022-10-12T14:53:42.714Z,19.00
2022-10-12T14:56:51.138Z,20.90
2022-10-12T15:00:00.216Z,20.33
2022-10-12T15:03:10.350Z,17.70
2022-10-12T15:06:18.768Z,18.13
2022-10-12T15:09:27.323Z,16.87
2022-10-12T15:12:36.135Z,18.40
2022-10-12T15:15:48.463Z,14.87
2022-10-12T15:18:58.808Z,14.93
2022-10-12T15:22:08.045Z,13.73
2022-10-12T15:25:25.089Z,15.17
2022-10-12T15:28:33.793Z,12.50
2022-10-12T15:31:47.691Z,13.00
2022-10-12T15:35:01.552Z,16.40
2022-10-12T15:38:11.913Z,15.67
2022-10-12T15:41:26.949Z,18.30
2022-10-12T15:44:41.963Z,12.77
2022-10-12T15:47:52.269Z,11.27
2022-10-12T15:51:02.303Z,14.27
2022-10-12T15:54:12.144Z,11.27
2022-10-12T15:57:20.737Z,15.53
2022-10-12T16:00:33.107Z,9.90
2022-10-12T16:03:42.724Z,11.90
2022-10-12T16:06:52.402Z,10.23
2022-10-12T16:10:00.900Z,15.67
2022-10-12T16:13:13.080Z,16.00
2022-10-12T16:16:22.320Z,13.83
2022-10-12T16:19:30.749Z,14.33
2022-10-12T16:22:42.443Z,17.33
2022-10-12T16:25:51.454Z,14.50
2022-10-12T16:29:00.610Z,13.97
2022-10-12T16:32:09.294Z,14.03
2022-10-12T16:35:18.248Z,14.77
2022-10-12T16:38:28.050Z,13.57
2022-10-12T16:41:36.446Z,12.40
2022-10-12T16:44:45.656Z,15.83
2022-10-12T16:47:54.729Z,14.13
2022-10-12T16:51:08.051Z,15.53
2022-10-12T16:54:17.919Z,13.63
2022-10-12T16:57:26.464Z,15.50
2022-10-12T17:00:34.977Z,14.00
2022-10-12T17:03:43.981Z,13.57
2022-10-12T17:06:54.249Z,15.43
2022-10-12T17:10:04.744Z,21.37
2022-10-12T17:13:14.685Z,23.17
2022-10-12T17:16:41.292Z,16.63
2022-10-12T17:19:50.172Z,19.23
2022-10-12T17:22:59.660Z,18.80
2022-10-12T17:26:09.408Z,19.77
2022-10-12T17:29:19.770Z,20.17
2022-10-12T17:32:28.410Z,17.00
2022-10-12T17:35:42.154Z,20.43
2022-10-12T17:38:50.783Z,19.43
2022-10-12T17:42:01.183Z,15.93
2022-10-12T17:45:10.741Z,14.03
2022-10-12T17:48:19.013Z,15.07
2022-10-12T17:51:31.616Z,16.53
2022-10-12T17:54:40.220Z,14.87
2022-10-12T17:57:50.070Z,14.83
2022-10-12T18:00:58.818Z,15.00
2022-10-12T18:04:07.398Z,14.53
2022-10-12T18:07:16.304Z,16.40
2022-10-12T18:10:27.785Z,14.83
2022-10-12T18:13:39.793Z,12.37
2022-10-12T18:16:48.860Z,15.87
2022-10-12T18:19:57.644Z,14.17
2022-10-12T18:23:06.785Z,16.30
2022-10-12T18:26:22.146Z,15.90
2022-10-12T18:29:32.028Z,15.50
2022-10-12T18:32:40.726Z,14.27
2022-10-12T18:35:49.073Z,17.07
2022-10-12T18:38:58.615Z,20.90
2022-10-12T18:42:07.180Z,17.63
2022-10-12T18:45:17.093Z,12.97
2022-10-12T18:48:26.011Z,11.97
2022-10-12T18:51:37.512Z,15.70
2022-10-12T18:54:47.692Z,10.30
2022-10-12T18:57:56.709Z,17.13
2022-10-12T19:01:10.735Z,13.67
2022-10-12T19:04:21.769Z,16.60
2022-10-12T19:07:30.383Z,15.40
2022-10-12T19:10:41.875Z,14.37
2022-10-12T19:13:54.476Z,20.00
2022-10-12T19:17:04.174Z,17.53
2022-10-12T19:20:13.267Z,16.10
2022-10-12T19:23:21.892Z,17.47
2022-10-12T19:26:31.286Z,17.07
2022-10-12T19:29:43.568Z,22.60
2022-10-12T19:32:55.892Z,23.40
2022-10-12T19:36:05.717Z,22.30
2022-10-12T19:39:17.575Z,17.87
2022-10-12T19:42:26.026Z,16.53
2022-10-12T19:45:40.790Z,15.83
2022-10-12T19:48:53.730Z,13.60
2022-10-12T19:52:03.546Z,19.40
2022-10-12T19:55:12.425Z,21.67
2022-10-12T19:58:21.569Z,19.53
2022-10-12T20:01:33.710Z,17.33
2022-10-12T20:04:44.500Z,16.23
2022-10-12T20:07:53.168Z,11.63
2022-10-12T20:11:01.788Z,9.30
2022-10-12T20:14:12.178Z,11.57
2022-10-12T20:17:20.755Z,11.20
2022-10-12T20:20:31.744Z,17.00
2022-10-12T20:23:43.288Z,15.77
2022-10-12T20:26:53.073Z,13.87
2022-10-12T20:30:04.098Z,11.67
2022-10-12T20:33:12.654Z,11.10
2022-10-12T20:36:27.980Z,12.40
2022-10-12T20:39:36.556Z,13.77
2022-10-12T20:42:46.100Z,18.30
2022-10-12T20:45:54.980Z,11.13
2022-10-12T20:49:05.714Z,13.30
2022-10-12T20:52:15.747Z,11.30
2022-10-12T20:55:25.110Z,9.73
2022-10-12T20:58:33.503Z,9.70
2022-10-12T21:01:42.040Z,10.93
2022-10-12T21:04:51.355Z,10.27
2022-10-12T21:08:01.511Z,11.00
2022-10-12T21:11:11.851Z,13.33
2022-10-12T21:14:20.070Z,12.10
2022-10-12T21:17:28.247Z,14.17
2022-10-12T21:20:36.663Z,9.07
2022-10-12T21:23:53.148Z,10.63
2022-10-12T21:27:01.396Z,11.60
2022-10-12T21:30:10.983Z,15.87
2022-10-12T21:33:19.907Z,8.87
2022-10-12T21:36:30.366Z,11.47
2022-10-12T21:39:40.213Z,7.50
2022-10-12T21:42:48.748Z,10.73
2022-10-12T21:45:57.361Z,10.73
2022-10-12T21:49:08.265Z,6.80
2022-10-12T21:52:16.730Z,11.53
2022-10-12T21:55:26.794Z,11.33
2022-10-12T21:58:35.495Z,9.67
2022-10-12T22:01:43.982Z,9.17
2022-10-12T22:04:52.176Z,9.53
2022-10-12T22:08:00.842Z,13.83
2022-10-12T22:11:13.762Z,7.83
2022-10-12T22:14:22.059Z,8.80
2022-10-12T22:17:30.318Z,9.30
2022-10-12T22:20:39.786Z,10.20
2022-10-12T22:23:48.450Z,10.60
2022-10-12T22:26:58.536Z,8.57
2022-10-12T22:30:08.392Z,10.97
2022-10-12T22:33:16.929Z,8.87
2022-10-12T22:36:25.748Z,8.90
2022-10-12T22:39:34.212Z,9.40
2022-10-12T22:42:44.063Z,9.57
2022-10-12T22:45:52.533Z,11.27
2022-10-12T22:49:02.734Z,8.97
2022-10-12T22:52:11.701Z,10.93
2022-10-12T22:55:20.271Z,8.40
2022-10-12T22:58:30.907Z,7.53
2022-10-12T23:01:39.427Z,10.20
2022-10-12T23:04:49.449Z,10.40
2022-10-12T23:07:58.078Z,8.63
2022-10-12T23:11:08.564Z,10.93
2022-10-12T23:14:18.266Z,11.93
2022-10-12T23:17:26.533Z,16.33
2022-10-12T23:20:35.053Z,9.97
2022-10-12T23:23:45.410Z,10.60
2022-10-12T23:26:53.908Z,11.60
2022-10-12T23:30:03.630Z,10.90
2022-10-12T23:33:11.836Z,11.13
2022-10-12T23:36:20.294Z,11.43
2022-10-12T23:39:28.532Z,12.23
2022-10-12T23:42:36.960Z,11.97
2022-10-12T23:45:47.205Z,12.30
2022-10-12T23:48:55.848Z,11.97
2022-10-12T23:52:04.184Z,12.77
2022-10-12T23:55:12.633Z,10.83
2022-10-12T23:58:22.434Z,11.63
